Time,TemperatureF,DewpointF,PressureIn,WindDirection,WindDirectionDegrees,WindSpeedMPH,WindSpeedGustMPH,Humidity,HourlyPrecipIn,Conditions,Clouds,dailyrainin,SolarRadiationWatts/m^2,SoftwareType,DateUTC
2013-07-18 00:01:00,58.0,47.0,-100.00,South,187,0.0,3.0,68,0.00,,,0.00,0.000000,,2013-07-18 06:01:00,
2013-07-18 00:12:00,58.0,47.0,-100.00,South,187,0.0,3.0,68,0.00,,,0.00,0.000000,,2013-07-18 06:12:00,
2013-07-18 00:22:00,58.0,47.0,-100.00,South,187,0.0,3.0,68,0.00,,,0.00,0.000000,,2013-07-18 06:22:00,
2013-07-18 00:32:00,58.0,47.0,-100.00,South,187,0.0,3.0,68,0.00,,,0.00,0.000000,,2013-07-18 06:32:00,
2013-07-18 01:01:00,64.0,51.0,-100.00,SSE,158,4.0,7.0,63,0.00,,,0.00,0.000000,,2013-07-18 07:01:00,
2013-07-18 01:12:00,64.0,51.0,-100.00,SSE,158,4.0,7.0,63,0.00,,,0.00,0.000000,,2013-07-18 07:12:00,
2013-07-18 01:22:00,64.0,51.0,-100.00,SSE,158,4.0,7.0,63,0.00,,,0.00,0.000000,,2013-07-18 07:22:00,
2013-07-18 01:32:00,64.0,51.0,-100.00,SSE,158,4.0,7.0,63,0.00,,,0.00,0.000000,,2013-07-18 07:32:00,
2013-07-18 04:01:00,55.0,49.0,-100.00,North,360,0.0,3.0,81,-99.99,,,0.00,0.000000,,2013-07-18 10:01:00,
2013-07-18 04:11:00,55.0,49.0,-100.00,North,360,0.0,3.0,81,-99.99,,,0.00,0.000000,,2013-07-18 10:11:00,
2013-07-18 04:21:00,55.0,49.0,-100.00,North,360,0.0,3.0,81,-99.99,,,0.00,0.000000,,2013-07-18 10:21:00,
2013-07-18 04:32:00,55.0,49.0,-100.00,North,360,0.0,3.0,81,-99.99,,,0.00,0.000000,,2013-07-18 10:32:00,
2013-07-18 05:01:00,52.0,49.0,-100.00,NNE,12,2.0,3.0,88,0.00,,,0.00,0.000000,,2013-07-18 11:01:00,
2013-07-18 05:11:00,52.0,49.0,-100.00,NNE,12,2.0,3.0,88,0.00,,,0.00,0.000000,,2013-07-18 11:11:00,
2013-07-18 05:22:00,52.0,49.0,-100.00,NNE,12,2.0,3.0,88,0.00,,,0.00,0.000000,,2013-07-18 11:22:00,
2013-07-18 05:32:00,52.0,49.0,-100.00,NNE,12,2.0,3.0,88,0.00,,,0.00,0.000000,,2013-07-18 11:32:00,
2013-07-18 07:01:00,51.0,48.0,-100.00,NNE,26,0.0,3.0,90,-99.99,,,0.00,15.000000,,2013-07-18 13:01:00,
2013-07-18 07:11:00,51.0,48.0,-100.00,NNE,26,0.0,3.0,90,-99.99,,,0.00,15.000000,,2013-07-18 13:11:00,
2013-07-18 07:22:00,51.0,48.0,-100.00,NNE,26,0.0,3.0,90,-99.99,,,0.00,15.000000,,2013-07-18 13:22:00,
2013-07-18 07:32:00,51.0,48.0,-100.00,NNE,26,0.0,3.0,90,-99.99,,,0.00,15.000000,,2013-07-18 13:32:00,
2013-07-18 08:02:00,60.0,55.0,-100.00,WSW,247,0.0,3.0,84,0.00,,,0.00,31.000000,,2013-07-18 14:02:00,
2013-07-18 08:11:00,60.0,55.0,-100.00,WSW,247,0.0,3.0,84,0.00,,,0.00,31.000000,,2013-07-18 14:11:00,
2013-07-18 08:22:00,60.0,55.0,-100.00,WSW,247,0.0,3.0,84,0.00,,,0.00,31.000000,,2013-07-18 14:22:00,
2013-07-18 08:33:00,60.0,55.0,-100.00,WSW,247,0.0,3.0,84,0.00,,,0.00,31.000000,,2013-07-18 14:33:00,
2013-07-18 09:01:00,75.0,50.0,-100.00,North,2,4.0,8.0,42,0.00,,,0.00,91.000000,,2013-07-18 15:01:00,
2013-07-18 09:11:00,75.0,50.0,-100.00,North,2,4.0,8.0,42,0.00,,,0.00,91.000000,,2013-07-18 15:11:00,
2013-07-18 09:22:00,75.0,50.0,-100.00,North,2,4.0,8.0,42,0.00,,,0.00,91.000000,,2013-07-18 15:22:00,
2013-07-18 09:32:00,75.0,50.0,-100.00,North,2,4.0,8.0,42,0.00,,,0.00,91.000000,,2013-07-18 15:32:00,
2013-07-18 10:01:00,78.0,50.0,-100.00,NNW,346,3.0,9.0,38,0.00,,,0.00,578.000000,,2013-07-18 16:01:00,
2013-07-18 10:11:00,78.0,50.0,-100.00,NNW,346,3.0,9.0,38,0.00,,,0.00,578.000000,,2013-07-18 16:11:00,
2013-07-18 10:22:00,78.0,50.0,-100.00,NNW,346,3.0,9.0,38,0.00,,,0.00,578.000000,,2013-07-18 16:22:00,
2013-07-18 10:32:00,78.0,50.0,-100.00,NNW,346,3.0,9.0,38,0.00,,,0.00,578.000000,,2013-07-18 16:32:00,
2013-07-18 11:02:00,80.0,49.0,-100.00,North,351,3.0,9.0,34,0.00,,,0.00,784.000000,,2013-07-18 17:02:00,
2013-07-18 11:11:00,80.0,49.0,-100.00,North,351,3.0,9.0,34,0.00,,,0.00,784.000000,,2013-07-18 17:11:00,
2013-07-18 11:22:00,80.0,49.0,-100.00,North,351,3.0,9.0,34,0.00,,,0.00,784.000000,,2013-07-18 17:22:00,
2013-07-18 11:33:00,80.0,49.0,-100.00,North,351,3.0,9.0,34,0.00,,,0.00,784.000000,,2013-07-18 17:33:00,
2013-07-18 12:01:00,78.0,50.0,-100.00,NNW,337,3.0,9.0,37,0.00,,,0.00,630.000000,,2013-07-18 18:01:00,
2013-07-18 12:11:00,78.0,50.0,-100.00,NNW,337,3.0,9.0,37,0.00,,,0.00,630.000000,,2013-07-18 18:11:00,
2013-07-18 12:22:00,78.0,50.0,-100.00,NNW,337,3.0,9.0,37,0.00,,,0.00,630.000000,,2013-07-18 18:22:00,
2013-07-18 12:32:00,78.0,50.0,-100.00,NNW,337,3.0,9.0,37,0.00,,,0.00,630.000000,,2013-07-18 18:32:00,
2013-07-18 13:02:00,75.0,53.0,-100.00,NNW,331,3.0,10.0,46,0.00,,,0.00,323.000000,,2013-07-18 19:02:00,
2013-07-18 13:11:00,75.0,53.0,-100.00,NNW,331,3.0,10.0,46,0.00,,,0.00,323.000000,,2013-07-18 19:11:00,
2013-07-18 13:22:00,75.0,53.0,-100.00,NNW,331,3.0,10.0,46,0.00,,,0.00,323.000000,,2013-07-18 19:22:00,
2013-07-18 13:32:00,75.0,53.0,-100.00,NNW,331,3.0,10.0,46,0.00,,,0.00,323.000000,,2013-07-18 19:32:00,
2013-07-18 14:02:00,81.0,51.0,-100.00,NW,326,3.0,9.0,35,0.00,,,0.00,822.000000,,2013-07-18 20:02:00,
2013-07-18 14:11:00,81.0,51.0,-100.00,NW,326,3.0,9.0,35,0.00,,,0.00,822.000000,,2013-07-18 20:11:00,
2013-07-18 14:22:00,81.0,51.0,-100.00,NW,326,3.0,9.0,35,0.00,,,0.00,822.000000,,2013-07-18 20:22:00,
2013-07-18 14:32:00,81.0,51.0,-100.00,NW,326,3.0,9.0,35,0.00,,,0.00,822.000000,,2013-07-18 20:32:00,
2013-07-18 15:01:00,76.0,54.0,-100.00,SSW,202,4.0,11.0,46,0.00,,,0.00,422.000000,,2013-07-18 21:01:00,
2013-07-18 15:11:00,76.0,54.0,-100.00,SSW,202,4.0,11.0,46,0.00,,,0.00,422.000000,,2013-07-18 21:11:00,
2013-07-18 15:22:00,76.0,54.0,-100.00,SSW,202,4.0,11.0,46,0.00,,,0.00,422.000000,,2013-07-18 21:22:00,
2013-07-18 15:32:00,76.0,54.0,-100.00,SSW,202,4.0,11.0,46,0.00,,,0.00,422.000000,,2013-07-18 21:32:00,
2013-07-18 16:01:00,74.0,55.0,-100.00,ESE,115,4.0,10.0,52,0.00,,,0.00,299.000000,,2013-07-18 22:01:00,
2013-07-18 16:11:00,74.0,55.0,-100.00,ESE,115,4.0,10.0,52,0.00,,,0.00,299.000000,,2013-07-18 22:11:00,
2013-07-18 16:22:00,74.0,55.0,-100.00,ESE,115,4.0,10.0,52,0.00,,,0.00,299.000000,,2013-07-18 22:22:00,
2013-07-18 16:32:00,74.0,55.0,-100.00,ESE,115,4.0,10.0,52,0.00,,,0.00,299.000000,,2013-07-18 22:32:00,
2013-07-18 17:02:00,74.0,57.0,-100.00,ESE,115,3.0,10.0,55,0.00,,,0.00,179.000000,,2013-07-18 23:02:00,
2013-07-18 17:11:00,74.0,57.0,-100.00,ESE,115,3.0,10.0,55,0.00,,,0.00,179.000000,,2013-07-18 23:11:00,
2013-07-18 17:22:00,74.0,57.0,-100.00,ESE,115,3.0,10.0,55,0.00,,,0.00,179.000000,,2013-07-18 23:22:00,
2013-07-18 17:32:00,74.0,57.0,-100.00,ESE,115,3.0,10.0,55,0.00,,,0.00,179.000000,,2013-07-18 23:32:00,
2013-07-18 18:01:00,73.0,54.0,-100.00,East,88,4.0,9.0,51,0.00,,,0.00,211.000000,,2013-07-19 00:01:00,
2013-07-18 18:11:00,73.0,54.0,-100.00,East,88,4.0,9.0,51,0.00,,,0.00,211.000000,,2013-07-19 00:11:00,
2013-07-18 18:22:00,73.0,54.0,-100.00,East,88,4.0,9.0,51,0.00,,,0.00,211.000000,,2013-07-19 00:22:00,
2013-07-18 18:32:00,73.0,54.0,-100.00,East,88,4.0,9.0,51,0.00,,,0.00,211.000000,,2013-07-19 00:32:00,
2013-07-18 19:01:00,74.0,55.0,-100.00,NE,36,1.0,11.0,51,0.00,,,0.00,73.000000,,2013-07-19 01:01:00,
2013-07-18 19:11:00,74.0,55.0,-100.00,NE,36,1.0,11.0,51,0.00,,,0.00,73.000000,,2013-07-19 01:11:00,
2013-07-18 19:22:00,74.0,55.0,-100.00,NE,36,1.0,11.0,51,0.00,,,0.00,73.000000,,2013-07-19 01:22:00,
2013-07-18 19:32:00,74.0,55.0,-100.00,NE,36,1.0,11.0,51,0.00,,,0.00,73.000000,,2013-07-19 01:32:00,
2013-07-18 20:01:00,75.0,52.0,-100.00,North,10,2.0,7.0,44,0.00,,,0.00,139.000000,,2013-07-19 02:01:00,
2013-07-18 20:11:00,75.0,52.0,-100.00,North,10,2.0,7.0,44,0.00,,,0.00,139.000000,,2013-07-19 02:11:00,
2013-07-18 20:22:00,75.0,52.0,-100.00,North,10,2.0,7.0,44,0.00,,,0.00,139.000000,,2013-07-19 02:22:00,
2013-07-18 20:32:00,75.0,52.0,-100.00,North,10,2.0,7.0,44,0.00,,,0.00,139.000000,,2013-07-19 02:32:00,
2013-07-18 21:01:00,66.0,48.0,-100.00,North,10,1.0,4.0,53,0.00,,,0.00,17.000000,,2013-07-19 03:01:00,
2013-07-18 21:11:00,66.0,48.0,-100.00,North,10,1.0,4.0,53,0.00,,,0.00,17.000000,,2013-07-19 03:11:00,
2013-07-18 21:22:00,66.0,48.0,-100.00,North,10,1.0,4.0,53,0.00,,,0.00,17.000000,,2013-07-19 03:22:00,
2013-07-18 21:32:00,66.0,48.0,-100.00,North,10,1.0,4.0,53,0.00,,,0.00,17.000000,,2013-07-19 03:32:00,
2013-07-18 22:02:00,58.0,48.0,-100.00,North,8,1.0,3.0,70,0.00,,,0.00,1.000000,,2013-07-19 04:02:00,
2013-07-18 22:12:00,58.0,48.0,-100.00,North,8,1.0,3.0,70,0.00,,,0.00,1.000000,,2013-07-19 04:12:00,
2013-07-18 22:22:00,58.0,48.0,-100.00,North,8,1.0,3.0,70,0.00,,,0.00,1.000000,,2013-07-19 04:22:00,
2013-07-18 22:33:00,58.0,48.0,-100.00,North,8,1.0,3.0,70,0.00,,,0.00,1.000000,,2013-07-19 04:33:00,
2013-07-18 23:02:00,60.0,48.0,-100.00,NNE,12,1.0,5.0,64,0.00,,,0.00,0.000000,,2013-07-19 05:02:00,
2013-07-18 23:11:00,60.0,48.0,-100.00,NNE,12,1.0,5.0,64,0.00,,,0.00,0.000000,,2013-07-19 05:11:00,
2013-07-18 23:22:00,60.0,48.0,-100.00,NNE,12,1.0,5.0,64,0.00,,,0.00,0.000000,,2013-07-19 05:22:00,
2013-07-18 23:32:00,60.0,48.0,-100.00,NNE,12,1.0,5.0,64,0.00,,,0.00,0.000000,,2013-07-19 05:32:00,